Nagaleader — VRDD5 — position and weather

sailwx.info

Track history (hours):
 
Tides and Currents Weather Stations Pressure Air Temp Water Temp Dewpoint Dewpoint Depression Visibility Wind Speed Wind Dir Waves Ship Positions

Nagaleader

Last reported at 2015-May-28 02:14 UTC. Time now 2015-May-28 16:09 UTC.
Position N 26°05' E 119°46'.

Length 113 m; draft 7.1 m.

Type: Cargo ship. MMSI: 477926700.

Date/timePositionNaut miles runAvg speedWind from/ knotsBaromVisibWave heightAir tempDewpointWater temp
2015-May-28 02:14N 26°05' E 119°46'1013.0
2015-May-28 01:28N 26°08' E 119°36'1010.9
2015-May-28 00:34N 26°00' E 119°29'0 0.1
2015-May-27 23:32N 26°00' E 119°29'0 0.0
2015-May-27 22:32N 26°00' E 119°29'0 0.0
2015-May-27 21:32N 26°00' E 119°29'0 0.0
2015-May-27 20:32N 26°00' E 119°29'0 0.0
2015-May-27 19:32N 26°00' E 119°29'0 0.0
2015-May-27 18:32N 26°00' E 119°29'0 0.0
2015-May-27 17:32N 26°00' E 119°29'0 0.0
2015-May-27 16:32N 26°00' E 119°29'0 0.0
2015-May-27 15:32N 26°00' E 119°29'0 0.0
2015-May-27 14:32N 26°00' E 119°29'0 0.0
2015-May-27 13:32N 26°00' E 119°29'0 0.3
2015-May-27 12:32N 26°00' E 119°29'3 3.5
2015-May-27 11:34N 26°03' E 119°31'49 6.0
2015-May-27 03:21N 25°15' E 119°43'1113.5
2015-May-27 02:33N 25°19' E 119°32'146 7.3
2015-May-26 06:32N 22°55' E 120°03'1312.8
2015-May-26 05:33N 22°44' E 120°09'1211.9
2015-May-26 04:33N 22°33' E 120°13'5 5.1
2015-May-26 03:33N 22°34' E 120°19'0 0.0
2015-May-26 02:28N 22°34' E 120°19'0 0.0
2015-May-26 01:28N 22°34' E 120°19'0 0.0
2015-May-26 00:28N 22°34' E 120°19'0 0.0
2015-May-25 23:28N 22°34' E 120°19'0 0.0
2015-May-25 22:28N 22°34' E 120°19'1 1.2
2015-May-25 21:32N 22°33' E 120°20'0 0.0
2015-May-25 19:26N 22°33' E 120°20'0 0.0
2015-May-25 18:32N 22°33' E 120°20'0 0.0
2015-May-25 17:32N 22°33' E 120°20'0 0.0
2015-May-25 16:32N 22°33' E 120°20'0 0.0
2015-May-25 15:20N 22°33' E 120°20'0 0.0
2015-May-25 14:14N 22°33' E 120°20'0 0.1
2015-May-25 13:32N 22°33' E 120°20'2 0.8
2015-May-25 11:33N 22°33' E 120°18'1 1.0
2015-May-25 10:28N 22°32' E 120°17'0 0.1
2015-May-25 09:28N 22°32' E 120°17'0 0.1
2015-May-25 08:28N 22°32' E 120°17'0 0.0
2015-May-25 07:28N 22°32' E 120°17'0 0.0
2015-May-25 06:28N 22°32' E 120°17'0 0.0
2015-May-25 05:22N 22°32' E 120°17'0 0.1
2015-May-25 04:28N 22°32' E 120°17'0 0.0
2015-May-25 03:28N 22°32' E 120°17'0 0.0
2015-May-25 02:22N 22°32' E 120°17'0 0.0
2015-May-25 01:33N 22°32' E 120°17'0 0.0
2015-May-25 00:33N 22°32' E 120°17'1 0.6
2015-May-24 23:33N 22°32' E 120°16'1111.0
2015-May-24 22:33N 22°40' E 120°09'19511.3
2015-May-24 05:18N 25°54' E 119°52'1211.6
2015-May-24 04:18N 26°05' E 119°47'1110.4
2015-May-24 03:16N 26°08' E 119°36'811.3
2015-May-24 02:33N 26°02' E 119°30'2 1.7
2015-May-24 01:32N 26°00' E 119°29'0 0.0
2015-May-24 00:20N 26°00' E 119°29'0 0.0
2015-May-23 23:32N 26°00' E 119°29'0 0.0
2015-May-23 22:32N 26°00' E 119°29'0 0.0
2015-May-23 21:32N 26°00' E 119°29'0 0.0
2015-May-23 20:26N 26°00' E 119°29'0 0.0
2015-May-23 19:26N 26°00' E 119°29'0 0.0
2015-May-23 18:32N 26°00' E 119°29'0 0.0
2015-May-23 17:32N 26°00' E 119°29'0 0.0
2015-May-23 16:32N 26°00' E 119°29'0 0.0
2015-May-23 15:32N 26°00' E 119°29'0 0.0
2015-May-23 14:32N 26°00' E 119°29'0 0.0
2015-May-23 13:32N 26°00' E 119°29'0 0.0
2015-May-23 12:26N 26°00' E 119°29'0 0.0
2015-May-23 11:32N 26°00' E 119°29'3 3.4
2015-May-23 10:33N 26°03' E 119°30'18710.4
2015-May-22 16:31N 22°58' E 120°01'1313.5
2015-May-22 15:33N 22°46' E 120°07'1212.4
2015-May-22 14:33N 22°35' E 120°12'6 6.3
2015-May-22 13:33N 22°34' E 120°19'0 0.0
2015-May-22 12:31N 22°34' E 120°19'0 0.0
2015-May-22 11:19N 22°34' E 120°19'0 0.0
2015-May-22 10:31N 22°34' E 120°19'0 0.0
2015-May-22 09:31N 22°34' E 120°19'0 0.0
2015-May-22 08:31N 22°34' E 120°19'0 0.0
2015-May-22 07:31N 22°34' E 120°19'1 1.3
2015-May-22 06:31N 22°33' E 120°20'0 0.0
2015-May-22 05:31N 22°33' E 120°20'0 0.0
2015-May-21 20:32N 22°33' E 120°20'8 8.0
2015-May-21 19:33N 22°34' E 120°11'1111.4
2015-May-21 18:33N 22°44' E 120°07'18111.0
2015-May-21 02:03N 25°45' E 119°55'611.6
2015-May-21 01:30N 25°52' E 119°53'1411.8
2015-May-21 00:19N 26°05' E 119°48'1211.1
2015-May-20 23:16N 26°08' E 119°35'912.3
2015-May-20 22:34N 26°01' E 119°29'1 1.0
2015-May-20 21:29N 26°00' E 119°29'0 0.0
2015-May-20 20:29N 26°00' E 119°29'0 0.0
2015-May-20 19:29N 26°00' E 119°29'0 0.0
2015-May-20 18:23N 26°00' E 119°29'0 0.0
2015-May-20 17:23N 26°00' E 119°29'0 0.0
2015-May-20 16:29N 26°00' E 119°29'0 0.0
2015-May-20 15:29N 26°00' E 119°29'0 0.1
2015-May-20 14:29N 26°00' E 119°29'0 0.1
2015-May-20 13:29N 26°00' E 119°29'0 0.0
2015-May-20 12:23N 26°00' E 119°29'0 0.0
2015-May-20 11:29N 26°00' E 119°29'0 0.0
2015-May-20 10:29N 26°00' E 119°29'0 0.0
2015-May-20 09:17N 26°00' E 119°29'0 0.0
2015-May-20 08:29N 26°00' E 119°29'0 0.0
2015-May-20 07:28N 26°00' E 119°29'0 0.0
2015-May-20 06:28N 26°00' E 119°29'0 0.0
2015-May-20 01:33N 26°00' E 119°29'5 5.3
2015-May-20 00:31N 26°05' E 119°32'17 7.5
2015-May-19 22:14N 26°01' E 119°50'47 5.3
2015-May-19 13:28N 25°25' E 119°18'0 0.0
2015-May-19 12:18N 25°25' E 119°18'0 0.0
2015-May-19 11:24N 25°25' E 119°18'0 0.0
2015-May-19 10:29N 25°25' E 119°18'0 0.0
2015-May-19 09:30N 25°25' E 119°18'0 0.0
2015-May-19 08:29N 25°25' E 119°18'0 0.0
2015-May-19 07:29N 25°25' E 119°18'0 0.0
2015-May-19 06:17N 25°25' E 119°18'0 0.1
2015-May-19 05:33N 25°25' E 119°18'6 6.0
2015-May-19 04:32N 25°21' E 119°23'8 8.0
2015-May-19 03:31N 25°14' E 119°25'14912.3
2015-May-18 15:27N 22°49' E 120°05'1112.5
2015-May-18 14:33N 22°39' E 120°11'9 9.1
2015-May-18 13:32N 22°34' E 120°19'0 0.2
2015-May-18 12:34N 22°34' E 120°19'0 0.0
2015-May-18 11:33N 22°34' E 120°19'0 0.0
2015-May-18 10:33N 22°34' E 120°19'0 0.0
2015-May-18 09:33N 22°34' E 120°19'0 0.0
2015-May-18 08:33N 22°34' E 120°19'0 0.0
2015-May-18 07:33N 22°34' E 120°19'  
Track history (hours):
 
Tides and Currents Weather Stations Pressure Air Temp Water Temp Dewpoint Dewpoint Depression Visibility Wind Speed Wind Dir Waves Ship Positions

Nagaleader

Last reported at 2015-May-28 02:14 UTC. Time now 2015-May-28 16:09 UTC.
Position N 26°05' E 119°46'.

Length 113 m; draft 7.1 m.

Type: Cargo ship. MMSI: 477926700.

Date/timePositionNaut miles runAvg speedWind from/ knotsBaromVisibWave heightAir tempDewpointWater temp
2015-May-28 02:14N 26°05' E 119°46'1013.0
2015-May-28 01:28N 26°08' E 119°36'1010.9
2015-May-28 00:34N 26°00' E 119°29'0 0.1
2015-May-27 23:32N 26°00' E 119°29'0 0.0
2015-May-27 22:32N 26°00' E 119°29'0 0.0
2015-May-27 21:32N 26°00' E 119°29'0 0.0
2015-May-27 20:32N 26°00' E 119°29'0 0.0
2015-May-27 19:32N 26°00' E 119°29'0 0.0
2015-May-27 18:32N 26°00' E 119°29'0 0.0
2015-May-27 17:32N 26°00' E 119°29'0 0.0
2015-May-27 16:32N 26°00' E 119°29'0 0.0
2015-May-27 15:32N 26°00' E 119°29'0 0.0
2015-May-27 14:32N 26°00' E 119°29'0 0.0
2015-May-27 13:32N 26°00' E 119°29'0 0.3
2015-May-27 12:32N 26°00' E 119°29'3 3.5
2015-May-27 11:34N 26°03' E 119°31'49 6.0
2015-May-27 03:21N 25°15' E 119°43'1113.5
2015-May-27 02:33N 25°19' E 119°32'146 7.3
2015-May-26 06:32N 22°55' E 120°03'1312.8
2015-May-26 05:33N 22°44' E 120°09'1211.9
2015-May-26 04:33N 22°33' E 120°13'5 5.1
2015-May-26 03:33N 22°34' E 120°19'0 0.0
2015-May-26 02:28N 22°34' E 120°19'0 0.0
2015-May-26 01:28N 22°34' E 120°19'0 0.0
2015-May-26 00:28N 22°34' E 120°19'0 0.0
2015-May-25 23:28N 22°34' E 120°19'0 0.0
2015-May-25 22:28N 22°34' E 120°19'1 1.2
2015-May-25 21:32N 22°33' E 120°20'0 0.0
2015-May-25 19:26N 22°33' E 120°20'0 0.0
2015-May-25 18:32N 22°33' E 120°20'0 0.0
2015-May-25 17:32N 22°33' E 120°20'0 0.0
2015-May-25 16:32N 22°33' E 120°20'0 0.0
2015-May-25 15:20N 22°33' E 120°20'0 0.0
2015-May-25 14:14N 22°33' E 120°20'0 0.1
2015-May-25 13:32N 22°33' E 120°20'2 0.8
2015-May-25 11:33N 22°33' E 120°18'1 1.0
2015-May-25 10:28N 22°32' E 120°17'0 0.1
2015-May-25 09:28N 22°32' E 120°17'0 0.1
2015-May-25 08:28N 22°32' E 120°17'0 0.0
2015-May-25 07:28N 22°32' E 120°17'0 0.0
2015-May-25 06:28N 22°32' E 120°17'0 0.0
2015-May-25 05:22N 22°32' E 120°17'0 0.1
2015-May-25 04:28N 22°32' E 120°17'0 0.0
2015-May-25 03:28N 22°32' E 120°17'0 0.0
2015-May-25 02:22N 22°32' E 120°17'0 0.0
2015-May-25 01:33N 22°32' E 120°17'0 0.0
2015-May-25 00:33N 22°32' E 120°17'1 0.6
2015-May-24 23:33N 22°32' E 120°16'1111.0
2015-May-24 22:33N 22°40' E 120°09'19511.3
2015-May-24 05:18N 25°54' E 119°52'1211.6
2015-May-24 04:18N 26°05' E 119°47'1110.4
2015-May-24 03:16N 26°08' E 119°36'811.3
2015-May-24 02:33N 26°02' E 119°30'2 1.7
2015-May-24 01:32N 26°00' E 119°29'0 0.0
2015-May-24 00:20N 26°00' E 119°29'0 0.0
2015-May-23 23:32N 26°00' E 119°29'0 0.0
2015-May-23 22:32N 26°00' E 119°29'0 0.0
2015-May-23 21:32N 26°00' E 119°29'0 0.0
2015-May-23 20:26N 26°00' E 119°29'0 0.0
2015-May-23 19:26N 26°00' E 119°29'0 0.0
2015-May-23 18:32N 26°00' E 119°29'0 0.0
2015-May-23 17:32N 26°00' E 119°29'0 0.0
2015-May-23 16:32N 26°00' E 119°29'0 0.0
2015-May-23 15:32N 26°00' E 119°29'0 0.0
2015-May-23 14:32N 26°00' E 119°29'0 0.0
2015-May-23 13:32N 26°00' E 119°29'0 0.0
2015-May-23 12:26N 26°00' E 119°29'0 0.0
2015-May-23 11:32N 26°00' E 119°29'3 3.4
2015-May-23 10:33N 26°03' E 119°30'18710.4
2015-May-22 16:31N 22°58' E 120°01'1313.5
2015-May-22 15:33N 22°46' E 120°07'1212.4
2015-May-22 14:33N 22°35' E 120°12'6 6.3
2015-May-22 13:33N 22°34' E 120°19'0 0.0
2015-May-22 12:31N 22°34' E 120°19'0 0.0
2015-May-22 11:19N 22°34' E 120°19'0 0.0
2015-May-22 10:31N 22°34' E 120°19'0 0.0
2015-May-22 09:31N 22°34' E 120°19'0 0.0
2015-May-22 08:31N 22°34' E 120°19'0 0.0
2015-May-22 07:31N 22°34' E 120°19'1 1.3
2015-May-22 06:31N 22°33' E 120°20'0 0.0
2015-May-22 05:31N 22°33' E 120°20'0 0.0
2015-May-21 20:32N 22°33' E 120°20'8 8.0
2015-May-21 19:33N 22°34' E 120°11'1111.4
2015-May-21 18:33N 22°44' E 120°07'18111.0
2015-May-21 02:03N 25°45' E 119°55'611.6
2015-May-21 01:30N 25°52' E 119°53'1411.8
2015-May-21 00:19N 26°05' E 119°48'1211.1
2015-May-20 23:16N 26°08' E 119°35'912.3
2015-May-20 22:34N 26°01' E 119°29'1 1.0
2015-May-20 21:29N 26°00' E 119°29'0 0.0
2015-May-20 20:29N 26°00' E 119°29'0 0.0
2015-May-20 19:29N 26°00' E 119°29'0 0.0
2015-May-20 18:23N 26°00' E 119°29'0 0.0
2015-May-20 17:23N 26°00' E 119°29'0 0.0
2015-May-20 16:29N 26°00' E 119°29'0 0.0
2015-May-20 15:29N 26°00' E 119°29'0 0.1
2015-May-20 14:29N 26°00' E 119°29'0 0.1
2015-May-20 13:29N 26°00' E 119°29'0 0.0
2015-May-20 12:23N 26°00' E 119°29'0 0.0
2015-May-20 11:29N 26°00' E 119°29'0 0.0
2015-May-20 10:29N 26°00' E 119°29'0 0.0
2015-May-20 09:17N 26°00' E 119°29'0 0.0
2015-May-20 08:29N 26°00' E 119°29'0 0.0
2015-May-20 07:28N 26°00' E 119°29'0 0.0
2015-May-20 06:28N 26°00' E 119°29'0 0.0
2015-May-20 01:33N 26°00' E 119°29'5 5.3
2015-May-20 00:31N 26°05' E 119°32'17 7.5
2015-May-19 22:14N 26°01' E 119°50'47 5.3
2015-May-19 13:28N 25°25' E 119°18'0 0.0
2015-May-19 12:18N 25°25' E 119°18'0 0.0
2015-May-19 11:24N 25°25' E 119°18'0 0.0
2015-May-19 10:29N 25°25' E 119°18'0 0.0
2015-May-19 09:30N 25°25' E 119°18'0 0.0
2015-May-19 08:29N 25°25' E 119°18'0 0.0
2015-May-19 07:29N 25°25' E 119°18'0 0.0
2015-May-19 06:17N 25°25' E 119°18'0 0.1
2015-May-19 05:33N 25°25' E 119°18'6 6.0
2015-May-19 04:32N 25°21' E 119°23'8 8.0
2015-May-19 03:31N 25°14' E 119°25'14912.3
2015-May-18 15:27N 22°49' E 120°05'1112.5
2015-May-18 14:33N 22°39' E 120°11'9 9.1
2015-May-18 13:32N 22°34' E 120°19'0 0.2
2015-May-18 12:34N 22°34' E 120°19'0 0.0
2015-May-18 11:33N 22°34' E 120°19'0 0.0
2015-May-18 10:33N 22°34' E 120°19'0 0.0
2015-May-18 09:33N 22°34' E 120°19'0 0.0
2015-May-18 08:33N 22°34' E 120°19'0 0.0
2015-May-18 07:33N 22°34' E 120°19'  

Dump ship's entire track history